FRS111N EDDG-EDLP
Flight info
| Callsign | FRS111N |
|---|---|
| Flight time | N/A |
| Altitude | |
| Route | |
| Aircraft | TBM9 |
Departure
| Time | 2026-05-04 09:23 |
|---|---|
| Airport | Münster Osnabrück Airport (EDDG) |
Arrival
| Time | N/A |
|---|---|
| Airport | Paderborn Lippstadt Airport (EDLP) |
| Time | Latitude | Longitude | Altitude | Speed | Heading |
|---|---|---|---|---|---|
| 2026-05-04 09:19 | 52.13158 | 7.68236 | 163 ft | 0 kts | 90° |
| 2026-05-04 09:20 | 52.13160 | 7.68271 | 163 ft | 7 kts | 47° |
| 2026-05-04 09:20 | 52.13214 | 7.68347 | 165 ft | 14 kts | 348° |
| 2026-05-04 09:20 | 52.13276 | 7.68422 | 164 ft | 21 kts | 74° |
| 2026-05-04 09:20 | 52.13327 | 7.68675 | 163 ft | 25 kts | 67° |
| 2026-05-04 09:21 | 52.13386 | 7.68950 | 161 ft | 26 kts | 73° |
| 2026-05-04 09:21 | 52.13448 | 7.69235 | 161 ft | 26 kts | 70° |
| 2026-05-04 09:21 | 52.13507 | 7.69512 | 162 ft | 26 kts | 71° |
| 2026-05-04 09:21 | 52.13568 | 7.69789 | 161 ft | 27 kts | 73° |
| 2026-05-04 09:22 | 52.13664 | 7.70024 | 160 ft | 26 kts | 2° |
| 2026-05-04 09:22 | 52.13771 | 7.69934 | 161 ft | 11 kts | 252° |
| 2026-05-04 09:22 | 52.13692 | 7.69572 | 165 ft | 62 kts | 251° |
| 2026-05-04 09:22 | 52.13484 | 7.68630 | 193 ft | 110 kts | 249° |
| 2026-05-04 09:23 | 52.13334 | 7.67470 | 772 ft | 94 kts | 255° |
| 2026-05-04 09:23 | 52.13193 | 7.66557 | 1300 ft | 76 kts | 255° |
| 2026-05-04 09:23 | 52.12976 | 7.65730 | 1487 ft | 93 kts | 221° |
| 2026-05-04 09:23 | 52.12246 | 7.65646 | 1515 ft | 128 kts | 167° |
| 2026-05-04 09:25 | 52.05995 | 7.68619 | 1502 ft | 200 kts | 205° |
| 2026-05-04 09:25 | 52.04668 | 7.67899 | 1501 ft | 208 kts | 196° |
| 2026-05-04 09:26 | 52.03246 | 7.67393 | 1501 ft | 206 kts | 193° |
| 2026-05-04 09:26 | 52.01860 | 7.67264 | 1475 ft | 201 kts | 169° |
| 2026-05-04 09:26 | 52.00676 | 7.68440 | 1482 ft | 204 kts | 132° |
| 2026-05-04 09:26 | 52.00074 | 7.70530 | 1484 ft | 208 kts | 109° |
| 2026-05-04 09:27 | 51.99697 | 7.72826 | 1485 ft | 213 kts | 107° |
| 2026-05-04 09:27 | 51.99313 | 7.75159 | 1729 ft | 215 kts | 107° |
| 2026-05-04 09:27 | 51.98936 | 7.77498 | 2130 ft | 214 kts | 107° |
| 2026-05-04 09:27 | 51.98495 | 7.79817 | 2442 ft | 217 kts | 110° |
| 2026-05-04 09:28 | 51.98049 | 7.82153 | 2801 ft | 217 kts | 110° |
| 2026-05-04 09:28 | 51.97603 | 7.84516 | 3066 ft | 220 kts | 110° |
| 2026-05-04 09:28 | 51.97036 | 7.86797 | 3355 ft | 218 kts | 118° |
| 2026-05-04 09:28 | 51.96290 | 7.88941 | 3630 ft | 218 kts | 126° |
| 2026-05-04 09:29 | 51.95428 | 7.90980 | 3872 ft | 220 kts | 128° |
| 2026-05-04 09:29 | 51.94587 | 7.92955 | 4535 ft | 201 kts | 128° |
| 2026-05-04 09:29 | 51.93857 | 7.94712 | 5420 ft | 175 kts | 127° |
| 2026-05-04 09:29 | 51.93223 | 7.96268 | 6092 ft | 168 kts | 127° |
| 2026-05-04 09:30 | 51.92486 | 7.98017 | 6006 ft | 204 kts | 128° |
| 2026-05-04 09:30 | 51.91626 | 8.00002 | 6001 ft | 226 kts | 128° |
| 2026-05-04 09:30 | 51.90687 | 8.02145 | 6012 ft | 240 kts | 128° |
| 2026-05-04 09:30 | 51.89697 | 8.04380 | 6014 ft | 249 kts | 128° |
| 2026-05-04 09:31 | 51.88675 | 8.06684 | 6010 ft | 255 kts | 128° |
| 2026-05-04 09:31 | 51.87621 | 8.09012 | 6006 ft | 258 kts | 129° |
| 2026-05-04 09:31 | 51.86544 | 8.11351 | 6008 ft | 260 kts | 129° |
| 2026-05-04 09:31 | 51.85460 | 8.13703 | 6010 ft | 262 kts | 129° |
| 2026-05-04 09:32 | 51.84365 | 8.16078 | 6003 ft | 264 kts | 129° |
| 2026-05-04 09:32 | 51.83266 | 8.18451 | 6004 ft | 264 kts | 129° |
| 2026-05-04 09:34 | 51.75519 | 8.35172 | 4722 ft | 274 kts | 130° |
| 2026-05-04 09:34 | 51.74394 | 8.37593 | 4338 ft | 273 kts | 129° |
| 2026-05-04 09:34 | 51.73256 | 8.40026 | 3920 ft | 263 kts | 130° |
| 2026-05-04 09:34 | 51.72153 | 8.42356 | 2671 ft | 263 kts | 129° |
| 2026-05-04 09:35 | 51.71041 | 8.44722 | 2421 ft | 261 kts | 129° |
| 2026-05-04 09:35 | 51.69935 | 8.46817 | 2420 ft | 234 kts | 139° |
| 2026-05-04 09:35 | 51.68758 | 8.48513 | 2412 ft | 223 kts | 142° |
| 2026-05-04 09:35 | 51.67645 | 8.50084 | 2410 ft | 193 kts | 142° |
| 2026-05-04 09:37 | 51.63373 | 8.57752 | 2412 ft | 126 kts | 121° |
| 2026-05-04 09:37 | 51.63021 | 8.59049 | 2417 ft | 130 kts | 98° |
| 2026-05-04 09:38 | 51.63232 | 8.60463 | 2445 ft | 129 kts | 70° |
| 2026-05-04 09:38 | 51.63522 | 8.61745 | 2522 ft | 124 kts | 70° |
| 2026-05-04 09:38 | 51.63887 | 8.63113 | 2275 ft | 138 kts | 62° |
| 2026-05-04 09:38 | 51.64429 | 8.64398 | 1933 ft | 140 kts | 50° |
| 2026-05-04 09:39 | 51.64923 | 8.65607 | 1901 ft | 112 kts | 94° |
| 2026-05-04 09:39 | 51.64492 | 8.66487 | 1644 ft | 102 kts | 156° |
| 2026-05-04 09:39 | 51.63817 | 8.67024 | 1427 ft | 107 kts | 162° |
| 2026-05-04 09:39 | 51.63270 | 8.66706 | 1401 ft | 101 kts | 259° |
| 2026-05-04 09:40 | 51.62990 | 8.65584 | 1179 ft | 110 kts | 242° |
| 2026-05-04 09:40 | 51.62596 | 8.64544 | 949 ft | 108 kts | 238° |
| 2026-05-04 09:40 | 51.62207 | 8.63537 | 780 ft | 101 kts | 237° |
| 2026-05-04 09:40 | 51.61956 | 8.62945 | 705 ft | 93 kts | 237° |
| 2026-05-04 09:41 | 51.61528 | 8.61917 | 699 ft | 74 kts | 235° |
| 2026-05-04 09:42 | 51.60540 | 8.55353 | 2083 ft | 166 kts | 330° |
| 2026-05-04 09:43 | 51.61584 | 8.54822 | 2007 ft | 144 kts | 349° |
| 2026-05-04 09:43 | 51.62459 | 8.55244 | 1879 ft | 132 kts | 45° |
| 2026-05-04 09:43 | 51.63000 | 8.56371 | 1737 ft | 123 kts | 53° |
| 2026-05-04 09:43 | 51.63513 | 8.57448 | 1593 ft | 119 kts | 53° |
| 2026-05-04 09:44 | 51.64000 | 8.58474 | 1540 ft | 111 kts | 52° |
| 2026-05-04 09:44 | 51.64448 | 8.59423 | 1534 ft | 102 kts | 53° |
| 2026-05-04 09:44 | 51.64853 | 8.60284 | 1531 ft | 92 kts | 52° |
| 2026-05-04 09:46 | 51.62388 | 8.64055 | 1120 ft | 93 kts | 236° |
| 2026-05-04 09:46 | 51.62038 | 8.63199 | 813 ft | 89 kts | 239° |
| 2026-05-04 09:46 | 51.61729 | 8.62404 | 689 ft | 73 kts | 238° |
| 2026-05-04 09:47 | 51.61454 | 8.61728 | 703 ft | 90 kts | 238° |
| 2026-05-04 09:47 | 51.61076 | 8.60797 | 1051 ft | 101 kts | 236° |
| 2026-05-04 09:49 | 51.54026 | 8.64919 | 1935 ft | 179 kts | 149° |
| 2026-05-04 09:49 | 51.52954 | 8.65665 | 2237 ft | 167 kts | 179° |
| 2026-05-04 09:49 | 51.51814 | 8.65294 | 2242 ft | 174 kts | 201° |
| 2026-05-04 09:51 | 51.44808 | 8.61043 | 3754 ft | 145 kts | 184° |
| 2026-05-04 09:51 | 51.43880 | 8.61138 | 4576 ft | 124 kts | 181° |
| 2026-05-04 09:51 | 51.43016 | 8.61230 | 4997 ft | 128 kts | 180° |
| 2026-05-04 09:51 | 51.42111 | 8.61286 | 5440 ft | 131 kts | 181° |
| 2026-05-04 09:52 | 51.41202 | 8.61336 | 5919 ft | 131 kts | 181° |
| 2026-05-04 09:52 | 51.40286 | 8.61375 | 6350 ft | 132 kts | 181° |
| 2026-05-04 09:52 | 51.39362 | 8.61417 | 6749 ft | 133 kts | 182° |
| 2026-05-04 09:52 | 51.38429 | 8.61475 | 7142 ft | 135 kts | 182° |
| 2026-05-04 09:53 | 51.37489 | 8.61547 | 7564 ft | 135 kts | 182° |
| 2026-05-04 09:53 | 51.36549 | 8.61626 | 7945 ft | 136 kts | 181° |
| 2026-05-04 09:53 | 51.35601 | 8.61710 | 8327 ft | 137 kts | 181° |
| 2026-05-04 09:53 | 51.34650 | 8.61800 | 8761 ft | 137 kts | 181° |
| 2026-05-04 09:54 | 51.33692 | 8.61909 | 9193 ft | 139 kts | 181° |
| 2026-05-04 09:54 | 51.32725 | 8.62018 | 9607 ft | 140 kts | 181° |
| 2026-05-04 09:54 | 51.31747 | 8.62119 | 9979 ft | 143 kts | 181° |
| 2026-05-04 09:54 | 51.30661 | 8.62230 | 10022 ft | 169 kts | 182° |
| 2026-05-04 09:55 | 51.29411 | 8.62326 | 10029 ft | 190 kts | 182° |
| 2026-05-04 09:55 | 51.28036 | 8.62419 | 10028 ft | 205 kts | 182° |
| 2026-05-04 09:55 | 51.26591 | 8.62506 | 10026 ft | 215 kts | 182° |
| 2026-05-04 09:55 | 51.25052 | 8.62590 | 10026 ft | 220 kts | 182° |
| 2026-05-04 09:56 | 51.23511 | 8.62669 | 10022 ft | 223 kts | 182° |
| 2026-05-04 09:56 | 51.21975 | 8.62743 | 10025 ft | 225 kts | 182° |
| 2026-05-04 09:56 | 51.20405 | 8.62816 | 10023 ft | 226 kts | 182° |
| 2026-05-04 09:56 | 51.18802 | 8.62896 | 10019 ft | 228 kts | 182° |
| 2026-05-04 09:57 | 51.17233 | 8.62958 | 10018 ft | 229 kts | 182° |
| 2026-05-04 09:57 | 51.15628 | 8.63042 | 10016 ft | 232 kts | 182° |
| 2026-05-04 09:57 | 51.14015 | 8.63123 | 10024 ft | 233 kts | 182° |
| 2026-05-04 09:57 | 51.12374 | 8.63203 | 10018 ft | 233 kts | 182° |
| 2026-05-04 09:58 | 51.10758 | 8.63266 | 10019 ft | 232 kts | 182° |
| 2026-05-04 09:58 | 51.09150 | 8.63334 | 10015 ft | 231 kts | 182° |
| 2026-05-04 09:58 | 51.07547 | 8.63405 | 10013 ft | 230 kts | 182° |
| 2026-05-04 10:00 | 50.96412 | 8.63936 | 10019 ft | 235 kts | 182° |
| 2026-05-04 10:00 | 50.94741 | 8.64009 | 10026 ft | 244 kts | 182° |
| 2026-05-04 10:02 | 50.82181 | 8.64408 | 10027 ft | 263 kts | 182° |
| 2026-05-04 10:04 | 50.69334 | 8.64795 | 10019 ft | 264 kts | 182° |
| 2026-05-04 10:04 | 50.67492 | 8.64856 | 10021 ft | 265 kts | 182° |
| 2026-05-04 10:04 | 50.65652 | 8.64911 | 10015 ft | 264 kts | 182° |
| 2026-05-04 10:04 | 50.63814 | 8.64967 | 10021 ft | 264 kts | 182° |
| 2026-05-04 10:05 | 50.61974 | 8.65025 | 10021 ft | 265 kts | 182° |
| 2026-05-04 10:05 | 50.60132 | 8.65091 | 10017 ft | 265 kts | 182° |
| 2026-05-04 10:05 | 50.58291 | 8.65163 | 10019 ft | 264 kts | 182° |
| 2026-05-04 10:05 | 50.56451 | 8.65214 | 10015 ft | 265 kts | 182° |
| 2026-05-04 10:06 | 50.54611 | 8.65265 | 10020 ft | 264 kts | 182° |
| 2026-05-04 10:06 | 50.52777 | 8.65311 | 10018 ft | 264 kts | 182° |
| 2026-05-04 10:06 | 50.50937 | 8.65369 | 10005 ft | 265 kts | 182° |
| 2026-05-04 10:08 | 50.39423 | 8.65530 | 5947 ft | 269 kts | 182° |
| 2026-05-04 10:08 | 50.37567 | 8.65556 | 4766 ft | 264 kts | 181° |
| 2026-05-04 10:08 | 50.35834 | 8.65498 | 4515 ft | 230 kts | 183° |
| 2026-05-04 10:08 | 50.34371 | 8.65531 | 4515 ft | 191 kts | 181° |
| 2026-05-04 10:09 | 50.33117 | 8.65588 | 4159 ft | 179 kts | 181° |
| 2026-05-04 10:09 | 50.31862 | 8.65627 | 3643 ft | 179 kts | 182° |
| 2026-05-04 10:09 | 50.30623 | 8.65672 | 3154 ft | 179 kts | 182° |
| 2026-05-04 10:09 | 50.29398 | 8.65733 | 2643 ft | 176 kts | 181° |
| 2026-05-04 10:10 | 50.28190 | 8.65753 | 2181 ft | 171 kts | 181° |
| 2026-05-04 10:10 | 50.27021 | 8.65741 | 1672 ft | 170 kts | 182° |
| 2026-05-04 10:10 | 50.25852 | 8.65558 | 1545 ft | 167 kts | 202° |
| 2026-05-04 10:10 | 50.25037 | 8.64333 | 1543 ft | 167 kts | 247° |
| 2026-05-04 10:11 | 50.25006 | 8.62534 | 1536 ft | 170 kts | 284° |
| 2026-05-04 10:11 | 50.25560 | 8.60927 | 1541 ft | 173 kts | 317° |
| 2026-05-04 10:11 | 50.26656 | 8.60375 | 1794 ft | 161 kts | 9° |
| 2026-05-04 10:11 | 50.27379 | 8.61294 | 1986 ft | 146 kts | 71° |
| 2026-05-04 10:12 | 50.27389 | 8.62976 | 1896 ft | 166 kts | 106° |
| 2026-05-04 10:12 | 50.26739 | 8.64319 | 1807 ft | 149 kts | 156° |
| 2026-05-04 10:12 | 50.25773 | 8.64895 | 1436 ft | 162 kts | 163° |
| 2026-05-04 10:12 | 50.24669 | 8.65447 | 1705 ft | 135 kts | 168° |
| 2026-05-04 10:13 | 50.23828 | 8.65681 | 1791 ft | 130 kts | 175° |
| 2026-05-04 10:13 | 50.22981 | 8.65917 | 1768 ft | 121 kts | 156° |
| 2026-05-04 10:13 | 50.22228 | 8.66581 | 1783 ft | 130 kts | 143° |
| 2026-05-04 10:13 | 50.21449 | 8.67296 | 1794 ft | 132 kts | 169° |
| 2026-05-04 10:14 | 50.20541 | 8.67155 | 1789 ft | 133 kts | 195° |
| 2026-05-04 10:14 | 50.19667 | 8.66741 | 1794 ft | 131 kts | 200° |
| 2026-05-04 10:16 | 50.13831 | 8.60865 | 1534 ft | 141 kts | 233° |
| 2026-05-04 10:16 | 50.13267 | 8.59630 | 1533 ft | 139 kts | 230° |
| 2026-05-04 10:16 | 50.12434 | 8.58968 | 1535 ft | 141 kts | 180° |
| 2026-05-04 10:16 | 50.11580 | 8.59645 | 1525 ft | 143 kts | 129° |
| 2026-05-04 10:17 | 50.11512 | 8.61029 | 1560 ft | 152 kts | 47° |
| 2026-05-04 10:17 | 50.12525 | 8.61472 | 1467 ft | 161 kts | 341° |
| 2026-05-04 10:19 | 50.10670 | 8.68149 | 1438 ft | 208 kts | 42° |
| 2026-05-04 10:19 | 50.12104 | 8.68856 | 1439 ft | 233 kts | 359° |
| 2026-05-04 10:19 | 50.13759 | 8.68464 | 1436 ft | 249 kts | 348° |
| 2026-05-04 10:19 | 50.15456 | 8.67861 | 1517 ft | 254 kts | 348° |
| 2026-05-04 10:20 | 50.17205 | 8.67242 | 1412 ft | 260 kts | 345° |
| 2026-05-04 10:20 | 50.18945 | 8.66413 | 1113 ft | 263 kts | 343° |
| 2026-05-04 10:20 | 50.20688 | 8.65588 | 982 ft | 259 kts | 343° |
| 2026-05-04 10:20 | 50.22341 | 8.65012 | 1327 ft | 244 kts | 349° |
| 2026-05-04 10:21 | 50.24054 | 8.64656 | 1179 ft | 253 kts | 354° |
| 2026-05-04 10:21 | 50.25819 | 8.64393 | 1048 ft | 254 kts | 355° |
| 2026-05-04 10:21 | 50.27543 | 8.64172 | 1293 ft | 241 kts | 356° |
| 2026-05-04 10:21 | 50.29210 | 8.64073 | 1440 ft | 238 kts | 358° |
| 2026-05-04 10:22 | 50.32404 | 8.63639 | 1592 ft | 240 kts | 353° |
| 2026-05-04 10:22 | 50.34063 | 8.63383 | 1519 ft | 239 kts | 357° |
| 2026-05-04 10:22 | 50.35734 | 8.63321 | 1544 ft | 244 kts | 2° |
| 2026-05-04 10:23 | 50.37446 | 8.63609 | 1314 ft | 248 kts | 14° |
| 2026-05-04 10:23 | 50.39093 | 8.64384 | 1093 ft | 250 kts | 20° |
| 2026-05-04 10:25 | 50.43484 | 8.70561 | 981 ft | 224 kts | 169° |
| 2026-05-04 10:25 | 50.42706 | 8.68802 | 790 ft | 246 kts | 255° |
| 2026-05-04 10:25 | 50.42845 | 8.66256 | 1023 ft | 236 kts | 303° |
| 2026-05-04 10:25 | 50.44176 | 8.65009 | 1521 ft | 172 kts | 353° |
| 2026-05-04 10:26 | 50.44706 | 8.64739 | 3389 ft | 110 kts | 330° |
| 2026-05-04 10:26 | 50.45547 | 8.64025 | 3315 ft | 156 kts | 315° |
| 2026-05-04 10:26 | 50.46379 | 8.62471 | 2804 ft | 220 kts | 313° |
| 2026-05-04 10:26 | 50.47747 | 8.61318 | 2877 ft | 232 kts | 336° |
| 2026-05-04 10:27 | 50.48330 | 8.59759 | 4680 ft | 120 kts | 270° |
| 2026-05-04 10:27 | 50.48567 | 8.58455 | 5224 ft | 146 kts | 296° |
| 2026-05-04 10:27 | 50.49270 | 8.57018 | 5243 ft | 184 kts | 310° |
| 2026-05-04 10:27 | 50.50247 | 8.55491 | 5281 ft | 211 kts | 315° |
| 2026-05-04 10:28 | 50.50859 | 8.54616 | 5311 ft | 222 kts | 316° |